Time;durP1;ratioP1;P1;durP2;ratioP2;P2;SDS_P1;SDS_P2;PMS_P1;PMS_P2;Temp;Humidity;BMP_temperature;BMP_pressure;BME280_temperature;BME280_humidity;BME280_pressure;Samples;Min_cycle;Max_cycle;Signal;HPM_P1;HPM_P2
2023/05/12 00:00:12;;;;;;;6.43;4.80;;;12.90;99.90;;;15.89;54.67;97329.00;4975262;28;20047;-45
2023/05/12 00:02:41;;;;;;;7.28;5.57;;;12.80;99.90;;;15.83;54.85;97333.31;4975375;28;20070;-46
2023/05/12 00:05:09;;;;;;;6.43;5.20;;;12.70;99.90;;;15.72;55.38;97323.97;4975592;28;20043;-45
2023/05/12 00:07:37;;;;;;;6.25;5.18;;;12.60;99.90;;;15.68;55.30;97322.72;4975305;28;20047;-45
2023/05/12 00:10:05;;;;;;;9.40;6.00;;;12.50;99.90;;;15.63;55.52;97319.81;4975188;28;20046;-45
2023/05/12 00:12:32;;;;;;;7.07;5.90;;;12.40;99.90;;;15.59;55.61;97318.56;4975464;28;20050;-46
2023/05/12 00:15:00;;;;;;;6.57;5.55;;;12.40;99.90;;;15.55;55.79;97320.81;4957731;28;20049;-47
2023/05/12 00:17:27;;;;;;;7.97;6.10;;;12.40;99.90;;;15.53;55.96;97311.31;4975143;28;20053;-47
2023/05/12 00:19:55;;;;;;;6.75;5.70;;;12.30;99.90;;;15.53;55.89;97314.00;4974874;28;20050;-46
2023/05/12 00:22:23;;;;;;;7.75;5.35;;;12.40;99.90;;;15.51;56.09;97308.81;4975077;28;20043;-46
2023/05/12 00:24:50;;;;;;;7.15;5.70;;;12.30;99.90;;;15.44;56.04;97307.16;4975132;28;20399;-46
2023/05/12 00:27:18;;;;;;;9.07;6.15;;;12.30;99.90;;;15.40;56.43;97312.06;4974809;28;20521;-46
2023/05/12 00:29:45;;;;;;;8.73;6.20;;;12.30;99.90;;;15.39;56.53;97313.09;4974373;28;20050;-48
2023/05/12 00:32:13;;;;;;;9.23;6.25;;;12.20;99.90;;;15.38;56.68;97303.41;4957370;28;20054;-46
2023/05/12 00:34:42;;;;;;;9.40;7.25;;;12.20;99.90;;;15.36;56.62;97305.47;4975073;28;20047;-48
2023/05/12 00:37:10;;;;;;;10.48;7.28;;;12.20;99.90;;;15.34;56.65;97302.97;4965688;28;20069;-46
2023/05/12 00:39:38;;;;;;;11.18;8.52;;;12.20;99.90;;;15.33;56.70;97305.84;4974698;28;20051;-46
2023/05/12 00:42:06;;;;;;;13.00;9.48;;;12.20;99.90;;;15.32;56.79;97309.56;4957265;28;20058;-47
2023/05/12 00:44:33;;;;;;;12.30;8.98;;;12.20;99.90;;;15.28;57.06;97309.13;4964581;28;20057;-45
2023/05/12 00:47:03;;;;;;;12.95;9.18;;;12.10;99.90;;;15.29;57.01;97309.97;4956994;28;20059;-48
2023/05/12 00:49:31;;;;;;;10.50;8.55;;;12.10;99.90;;;15.31;57.03;97313.25;4956695;28;20066;-46
2023/05/12 00:52:01;;;;;;;10.48;8.50;;;12.20;99.90;;;15.28;57.02;97305.63;4973781;28;20054;-46
2023/05/12 00:54:30;;;;;;;11.02;8.60;;;12.10;99.90;;;15.26;57.26;97311.19;4957451;28;20042;-47
2023/05/12 00:56:57;;;;;;;10.40;7.97;;;12.10;99.90;;;15.27;57.17;97304.78;4956531;28;20054;-45
2023/05/12 00:59:25;;;;;;;11.90;8.35;;;12.10;99.90;;;15.28;57.15;97306.47;4973425;28;20050;-48
2023/05/12 01:01:53;;;;;;;8.10;7.15;;;12.10;99.90;;;15.31;56.97;97307.91;4974028;28;20050;-45
2023/05/12 01:04:21;;;;;;;10.77;7.80;;;12.10;99.90;;;15.31;56.96;97305.22;4956759;28;20419;-48
2023/05/12 01:07:08;;;;;;;10.05;7.38;;;12.10;99.90;;;15.30;56.83;97307.09;4948724;28;20057;-49
2023/05/12 01:09:36;;;;;;;9.88;7.68;;;12.10;99.90;;;15.33;56.91;97300.47;4956149;28;20042;-47
2023/05/12 01:12:04;;;;;;;12.60;8.05;;;12.20;99.90;;;15.33;56.83;97306.69;4964811;28;20046;-46
2023/05/12 01:14:34;;;;;;;10.23;7.70;;;12.20;99.90;;;15.34;56.96;97307.53;4972390;28;20054;-45
2023/05/12 01:17:07;;;;;;;11.52;7.75;;;12.20;99.90;;;15.35;56.85;97304.66;4972959;28;20414;-47
2023/05/12 01:19:57;;;;;;;14.10;9.10;;;12.20;99.90;;;15.37;56.94;97309.78;4972689;28;20053;-47
2023/05/12 01:22:27;;;;;;;11.70;8.25;;;12.30;99.90;;;15.36;56.92;97303.59;4958377;28;20047;-47
2023/05/12 01:25:02;;;;;;;9.85;7.22;;;12.20;99.90;;;15.32;57.20;97304.22;4956266;28;20051;-46
2023/05/12 01:27:33;;;;;;;11.13;7.70;;;12.20;99.90;;;15.27;57.30;97307.47;4957150;28;20051;-48
2023/05/12 01:30:05;;;;;;;10.88;7.50;;;12.10;99.90;;;15.24;57.40;97304.38;4972569;28;20043;-49
2023/05/12 01:32:37;;;;;;;8.13;7.03;;;12.10;99.90;;;15.27;57.10;97309.34;4956049;28;20502;-46
2023/05/12 01:35:06;;;;;;;8.30;6.15;;;12.10;99.90;;;15.22;57.23;97306.41;4956819;28;20073;-47
2023/05/12 01:37:36;;;;;;;10.25;7.00;;;12.00;99.90;;;15.20;57.48;97303.09;4972170;28;20054;-48
2023/05/12 01:40:06;;;;;;;10.23;7.43;;;12.00;99.90;;;15.22;57.70;97306.41;4955492;28;20314;-47
2023/05/12 01:42:34;;;;;;;9.20;6.97;;;12.10;99.90;;;15.23;57.50;97306.22;4973741;28;20499;-49
2023/05/12 01:45:01;;;;;;;11.18;6.47;;;12.10;99.90;;;15.27;57.29;97309.34;4971338;28;20055;-46
2023/05/12 01:47:30;;;;;;;8.90;6.93;;;12.10;99.90;;;15.31;57.45;97305.22;4955905;28;20644;-46
2023/05/12 01:50:05;;;;;;;9.55;6.90;;;12.20;99.90;;;15.34;57.31;97307.53;4963844;28;20047;-49
2023/05/12 01:52:33;;;;;;;11.65;7.25;;;12.20;99.90;;;15.35;57.11;97306.47;4971300;28;20051;-50
2023/05/12 01:55:01;;;;;;;9.50;8.18;;;12.30;99.90;;;15.37;57.10;97312.47;4956067;28;20054;-48
2023/05/12 01:57:35;;;;;;;;;;;12.30;99.90;;;15.46;56.68;97299.72;4956170;28;20050;-46
2023/05/12 02:00:03;;;;;;;10.10;7.78;;;12.30;99.90;;;15.44;56.69;97307.97;4963406;28;19929;-46
2023/05/12 02:02:40;;;;;;;9.90;7.13;;;12.30;99.90;;;15.42;57.17;97309.19;4973908;28;20061;-47
2023/05/12 02:05:11;;;;;;;10.88;8.32;;;12.30;99.90;;;15.43;57.02;97308.16;4971836;28;20047;-47
2023/05/12 02:07:40;;;;;;;9.68;8.05;;;12.40;99.90;;;15.39;56.96;97310.41;4955632;28;20050;-45
2023/05/12 02:10:09;;;;;;;11.75;8.50;;;12.30;99.90;;;15.34;57.05;97312.88;4954940;28;20047;-46
2023/05/12 02:12:37;;;;;;;11.73;9.02;;;12.20;99.90;;;15.31;57.61;97311.41;4963824;28;20047;-48
2023/05/12 02:15:05;;;;;;;12.85;9.20;;;12.20;99.90;;;15.27;57.41;97306.66;4955417;28;20051;-47
2023/05/12 02:17:36;;;;;;;13.60;9.63;;;12.10;99.90;;;15.26;57.40;97300.47;4963193;28;20058;-46
2023/05/12 02:20:06;;;;;;;13.98;9.85;;;12.20;99.90;;;15.22;57.63;97304.56;4955281;28;20062;-50
2023/05/12 02:22:33;;;;;;;14.98;9.18;;;12.10;99.90;;;15.18;57.65;97302.47;4972701;28;20050;-45
2023/05/12 02:25:01;;;;;;;15.60;10.82;;;12.10;99.90;;;15.17;57.77;97301.66;4955372;28;20059;-45
2023/05/12 02:27:31;;;;;;;16.05;11.85;;;12.10;99.90;;;15.16;57.90;97300.84;4963020;28;20426;-46
2023/05/12 02:29:59;;;;;;;19.35;10.73;;;12.10;99.90;;;15.21;57.96;97302.91;4954819;28;20051;-46
2023/05/12 02:32:29;;;;;;;17.23;10.90;;;12.10;99.90;;;15.20;58.08;97298.59;4955401;28;20062;-47
2023/05/12 02:34:56;;;;;;;15.38;10.25;;;12.10;99.90;;;15.23;58.02;97308.06;4955144;28;20046;-47
2023/05/12 02:37:24;;;;;;;17.17;11.48;;;12.10;99.90;;;15.27;58.04;97306.66;4954940;28;20411;-47
2023/05/12 02:39:53;;;;;;;17.73;11.48;;;12.30;99.90;;;15.26;58.08;97302.34;4954809;28;20051;-47
2023/05/12 02:42:20;;;;;;;15.45;10.95;;;12.30;99.90;;;15.23;58.19;97300.84;4972519;28;20045;-47
2023/05/12 02:44:48;;;;;;;17.02;10.93;;;12.30;99.90;;;15.26;58.25;97305.84;4952650;28;20531;-47
2023/05/12 02:47:15;;;;;;;17.27;11.32;;;12.40;99.90;;;15.33;58.03;97303.16;4954848;28;20049;-48
2023/05/12 02:49:43;;;;;;;15.18;10.23;;;12.40;99.90;;;15.34;58.12;97307.53;4972374;28;20039;-47
2023/05/12 02:52:11;;;;;;;14.77;9.98;;;12.40;99.90;;;15.36;58.08;97294.72;4955398;28;20047;-47
2023/05/12 02:54:39;;;;;;;16.48;10.90;;;12.50;99.90;;;15.42;57.95;97298.47;4972683;28;20042;-46
2023/05/12 02:57:06;;;;;;;17.58;10.95;;;12.50;99.90;;;15.45;57.75;97295.38;4954900;28;20047;-46
2023/05/12 02:59:34;;;;;;;13.55;9.88;;;12.40;99.90;;;15.49;57.69;97297.47;4954978;28;20074;-47
2023/05/12 03:02:01;;;;;;;14.75;10.38;;;12.50;99.90;;;15.49;57.66;97291.25;4972406;28;20055;-49
2023/05/12 03:04:29;;;;;;;14.43;10.30;;;12.40;99.90;;;15.49;57.52;97289.44;4962877;28;20061;-47
2023/05/12 03:06:58;;;;;;;18.45;10.85;;;12.40;99.90;;;15.50;57.50;97295.59;4954915;28;20063;-47
2023/05/12 03:09:25;;;;;;;16.35;10.15;;;12.40;99.90;;;15.51;57.46;97291.91;4955336;28;20503;-45
2023/05/12 03:11:53;;;;;;;17.15;10.25;;;12.40;99.90;;;15.52;57.59;97298.91;4970765;28;20047;-46
2023/05/12 03:14:20;;;;;;;15.77;10.05;;;12.40;99.90;;;15.51;57.63;97286.53;4954515;28;20046;-49
2023/05/12 03:16:48;;;;;;;16.23;10.25;;;12.50;99.90;;;15.50;57.52;97284.88;4962397;28;20050;-47
2023/05/12 03:19:16;;;;;;;15.25;9.77;;;12.50;99.90;;;15.46;57.73;97284.44;4954659;28;20050;-49
2023/05/12 03:21:44;;;;;;;14.32;10.20;;;12.50;99.90;;;15.41;57.53;97288.75;4954574;28;20046;-47
2023/05/12 03:24:11;;;;;;;14.93;10.52;;;12.40;99.90;;;15.39;57.57;97294.31;4954801;28;20047;-48
2023/05/12 03:26:39;;;;;;;17.13;10.23;;;12.30;99.90;;;15.38;57.74;97295.34;4972272;28;20047;-47
2023/05/12 03:29:07;;;;;;;18.23;11.07;;;12.40;99.90;;;15.42;57.59;97299.28;4971736;28;20054;-47
2023/05/12 03:31:35;;;;;;;15.73;10.02;;;12.40;99.90;;;15.43;57.50;97297.44;4972251;28;20047;-48
2023/05/12 03:34:04;;;;;;;16.92;9.65;;;12.40;99.90;;;15.41;57.72;97292.28;4954424;28;20411;-46
2023/05/12 03:36:32;;;;;;;17.17;10.93;;;12.40;99.90;;;15.44;57.72;97304.47;4972081;28;20043;-46
2023/05/12 03:39:01;;;;;;;15.27;10.63;;;12.30;99.90;;;15.45;57.63;97304.28;4954557;28;20058;-48
2023/05/12 03:41:29;;;;;;;14.77;9.60;;;12.40;99.90;;;15.48;57.69;97303.03;4972114;28;20147;-47
2023/05/12 03:43:56;;;;;;;16.45;10.40;;;12.40;99.90;;;15.48;57.74;97297.66;4972126;28;20499;-46
2023/05/12 03:46:24;;;;;;;17.67;10.73;;;12.40;99.90;;;15.49;57.67;97299.31;4953822;28;20054;-46
2023/05/12 03:48:52;;;;;;;17.52;10.60;;;12.40;99.90;;;15.50;57.83;97303.66;4954496;28;20055;-46
2023/05/12 03:51:20;;;;;;;15.63;10.40;;;12.40;99.90;;;15.51;57.72;97294.59;4972071;28;20046;-47
2023/05/12 03:53:50;;;;;;;15.48;11.32;;;12.40;99.90;;;15.54;57.77;97294.16;4954763;28;20051;-48
2023/05/12 03:56:20;;;;;;;15.98;10.38;;;12.40;99.90;;;15.54;57.63;97294.16;4954656;28;20387;-46
2023/05/12 03:58:48;;;;;;;14.10;10.27;;;12.40;99.90;;;15.55;57.75;97298.53;4954078;28;20510;-47
2023/05/12 04:01:16;;;;;;;15.93;9.32;;;12.50;99.90;;;15.54;57.74;97292.31;4954427;28;20054;-47
2023/05/12 04:03:44;;;;;;;15.77;10.40;;;12.50;99.90;;;15.55;57.73;97296.66;4966182;28;20106;-46
2023/05/12 04:06:12;;;;;;;13.23;8.95;;;12.50;99.90;;;15.55;57.64;97293.16;4957556;28;20051;-48
2023/05/12 04:08:40;;;;;;;13.45;9.20;;;12.50;99.90;;;15.55;57.53;97293.16;4957653;28;20518;-47
2023/05/12 04:11:09;;;;;;;14.73;8.73;;;12.40;99.90;;;15.51;57.47;97289.22;4973445;28;20400;-46
2023/05/12 04:13:38;;;;;;;15.02;10.80;;;12.40;99.90;;;15.47;57.67;97285.28;4965847;28;20057;-46
2023/05/12 04:16:05;;;;;;;19.42;11.98;;;12.40;99.90;;;15.47;57.74;97287.94;4975181;28;20038;-45
2023/05/12 04:18:35;;;;;;;14.48;9.73;;;12.30;99.90;;;15.48;57.66;97287.75;4957220;28;20054;-46
2023/05/12 04:21:04;;;;;;;15.30;9.18;;;12.40;99.90;;;15.51;57.62;97291.91;4973961;28;20087;-48
2023/05/12 04:23:32;;;;;;;14.82;8.98;;;12.40;99.90;;;15.51;57.67;97286.53;4975293;28;20047;-46
2023/05/12 04:26:04;;;;;;;14.35;9.57;;;12.50;99.90;;;15.50;57.62;97285.69;4974381;28;20047;-49
2023/05/12 04:28:31;;;;;;;14.02;9.02;;;12.50;99.90;;;15.51;57.67;97287.38;4957575;28;20077;-47
2023/05/12 04:31:03;;;;;;;14.77;9.88;;;12.50;99.90;;;15.54;57.77;97294.16;4956977;28;20051;-46
2023/05/12 04:33:31;;;;;;;12.05;8.68;;;12.60;99.90;;;15.57;57.76;97301.84;4958071;28;20314;-46
2023/05/12 04:35:59;;;;;;;13.98;10.13;;;12.60;99.90;;;15.57;57.52;97296.47;4964960;28;20530;-48
2023/05/12 04:38:28;;;;;;;15.50;10.52;;;12.50;99.90;;;15.56;57.73;97294.78;4957087;28;20043;-47
2023/05/12 04:40:58;;;;;;;13.32;8.57;;;12.50;99.90;;;15.58;57.71;97302.66;4957174;28;20051;-46
2023/05/12 04:43:26;;;;;;;13.73;9.10;;;12.60;99.90;;;15.63;57.64;97305.56;4965474;28;20051;-47
2023/05/12 04:45:57;;;;;;;12.35;8.85;;;12.60;99.90;;;15.67;57.53;97310.31;4963958;28;20403;-47
2023/05/12 04:48:30;;;;;;;13.32;9.32;;;12.60;99.90;;;15.70;57.59;97306.41;4969549;28;20051;-45
2023/05/12 04:50:59;;;;;;;15.82;9.27;;;12.60;99.90;;;15.70;57.65;97306.41;4970030;28;20119;-46
2023/05/12 04:53:27;;;;;;;14.90;9.70;;;12.70;99.90;;;15.69;57.35;97310.13;4974671;28;20050;-49
2023/05/12 04:55:55;;;;;;;14.07;10.18;;;12.70;99.90;;;15.70;57.52;97320.66;4956835;28;20058;-47
2023/05/12 04:58:23;;;;;;;13.25;9.23;;;12.70;99.90;;;15.70;57.34;97319.81;4972276;28;20054;-46
2023/05/12 05:00:51;;;;;;;15.77;10.35;;;12.70;99.90;;;15.71;57.49;97318.78;4973672;28;20542;-45
2023/05/12 05:03:19;;;;;;;14.20;11.02;;;12.60;99.90;;;15.72;57.43;97321.28;4949263;28;20058;-46
2023/05/12 05:05:47;;;;;;;15.20;10.05;;;12.70;99.90;;;15.72;57.21;97317.75;4957255;28;20054;-46
2023/05/12 05:08:15;;;;;;;16.02;10.38;;;12.60;99.90;;;15.71;57.27;97327.66;4948563;28;20058;-46
2023/05/12 05:10:43;;;;;;;15.80;10.18;;;12.60;99.90;;;15.70;57.32;97317.97;4957265;28;20195;-48
2023/05/12 05:13:10;;;;;;;13.85;9.77;;;12.60;99.90;;;15.70;57.42;97320.66;4973026;28;20054;-47
2023/05/12 05:15:38;;;;;;;15.70;10.75;;;12.60;99.90;;;15.69;57.46;97321.69;4972943;28;20046;-46
2023/05/12 05:18:06;;;;;;;14.38;10.10;;;12.60;99.90;;;15.73;57.24;97324.81;4973786;28;20035;-48
2023/05/12 05:20:33;;;;;;;15.15;9.85;;;12.60;99.90;;;15.75;57.22;97322.75;4972848;28;20085;-46
2023/05/12 05:23:01;;;;;;;12.00;8.95;;;12.60;99.90;;;15.75;57.28;97322.75;4964915;28;20058;-46
2023/05/12 05:25:29;;;;;;;12.43;9.27;;;12.70;99.90;;;15.78;57.36;97327.75;4955885;28;20054;-46
2023/05/12 05:27:57;;;;;;;17.27;10.50;;;12.70;99.90;;;15.80;57.20;97324.81;4974003;28;20050;-46
2023/05/12 05:30:24;;;;;;;13.82;9.57;;;12.70;99.90;;;15.82;57.24;97331.66;4972455;28;20367;-47
2023/05/12 05:32:52;;;;;;;19.15;9.90;;;12.70;99.90;;;15.81;57.13;97327.31;4948534;28;20050;-46
2023/05/12 05:35:20;;;;;;;13.93;9.75;;;12.70;99.90;;;15.80;57.22;97336.41;4965568;28;20050;-46
2023/05/12 05:37:52;;;;;;;13.05;8.55;;;12.70;99.90;;;15.82;57.00;97330.81;4972617;28;20049;-46
2023/05/12 05:40:21;;;;;;;14.75;9.02;;;12.70;99.90;;;15.86;56.97;97337.47;4964410;28;20042;-47
2023/05/12 05:42:48;;;;;;;14.23;9.07;;;12.80;99.90;;;15.86;56.98;97337.47;4955662;28;20058;-48
2023/05/12 05:45:16;;;;;;;14.73;9.38;;;12.80;99.90;;;15.86;57.17;97334.78;4960052;28;20038;-46
2023/05/12 05:47:45;;;;;;;13.20;9.10;;;12.70;99.90;;;15.87;57.11;97339.91;4972204;28;20043;-47
2023/05/12 05:50:13;;;;;;;12.93;9.45;;;12.80;99.90;;;15.86;56.82;97340.97;4963931;28;22241;-46
2023/05/12 05:52:42;;;;;;;14.40;9.35;;;12.80;99.90;;;15.85;57.04;97341.16;4955818;28;20514;-48
2023/05/12 05:55:09;;;;;;;11.57;8.02;;;12.80;99.90;;;15.88;57.07;97343.47;4973222;28;20054;-49
2023/05/12 05:57:37;;;;;;;12.52;8.32;;;12.90;99.90;;;15.92;56.99;97339.34;4955740;28;20047;-47
2023/05/12 06:00:09;;;;;;;14.73;8.90;;;12.90;99.90;;;15.96;56.81;97339.75;4963428;28;20054;-47
2023/05/12 06:02:46;;;;;;;13.45;9.02;;;12.90;99.90;;;15.97;56.81;97336.84;4955866;28;20051;-48
2023/05/12 06:05:18;;;;;;;12.20;8.75;;;12.90;99.90;;;16.02;56.66;97342.44;4955521;28;20050;-46
2023/05/12 06:07:46;;;;;;;13.40;9.23;;;13.00;99.90;;;16.06;56.59;97341.00;4955774;28;20058;-46
2023/05/12 06:10:13;;;;;;;13.48;9.05;;;13.00;99.90;;;16.09;56.39;97343.31;4955499;28;20431;-49
2023/05/12 06:12:42;;;;;;;16.10;8.52;;;13.00;99.90;;;16.11;56.46;97343.91;4971613;28;20061;-46
2023/05/12 06:15:10;;;;;;;14.80;9.32;;;13.10;99.90;;;16.12;56.53;97347.41;4971519;28;20058;-47
2023/05/12 06:17:38;;;;;;;13.43;8.55;;;13.10;99.90;;;16.16;56.41;97347.84;4972866;28;20510;-47
2023/05/12 06:20:06;;;;;;;15.13;9.75;;;13.10;99.90;;;16.20;56.37;97351.78;4972436;28;20721;-46
2023/05/12 06:22:34;;;;;;;13.70;9.80;;;13.10;99.90;;;16.20;56.14;97357.16;4955699;28;20061;-48
2023/05/12 06:25:02;;;;;;;13.30;9.07;;;13.10;99.90;;;16.19;56.34;97350.97;4972566;28;20055;-46
2023/05/12 06:27:31;;;;;;;11.57;8.55;;;13.10;99.90;;;16.22;56.31;97355.09;4963352;28;20058;-47
2023/05/12 06:29:58;;;;;;;12.38;7.97;;;13.10;99.90;;;16.22;56.44;97355.91;4954955;28;20050;-46
2023/05/12 06:32:26;;;;;;;11.90;8.05;;;13.10;99.90;;;16.26;56.32;97353.63;4955737;28;20140;-48
2023/05/12 06:34:54;;;;;;;13.57;8.73;;;13.20;99.90;;;16.28;56.56;97359.63;4970996;28;20046;-47
2023/05/12 06:37:23;;;;;;;12.77;9.65;;;13.20;99.90;;;16.30;56.39;97354.88;4963183;28;20118;-46
2023/05/12 06:39:51;;;;;;;10.98;9.38;;;13.30;99.90;;;16.31;56.20;97367.28;4954982;28;20529;-48
2023/05/12 06:42:18;;;;;;;12.77;8.82;;;13.20;99.90;;;16.28;55.94;97365.00;4972266;28;20034;-47
2023/05/12 06:44:50;;;;;;;11.73;8.80;;;13.10;99.90;;;16.25;56.20;97360.06;4955108;28;20506;-46
2023/05/12 06:47:20;;;;;;;12.48;9.43;;;13.20;99.90;;;16.27;56.27;97361.50;4963288;28;20046;-47
2023/05/12 06:49:49;;;;;;;10.18;7.78;;;13.30;99.90;;;16.29;56.13;97356.75;4969491;28;20055;-46
2023/05/12 06:52:16;;;;;;;10.15;8.18;;;13.20;99.90;;;16.30;56.23;97360.25;4954919;28;20499;-47
2023/05/12 06:54:44;;;;;;;12.65;8.80;;;13.20;99.90;;;16.33;56.18;97370.59;4954914;28;20530;-46
2023/05/12 06:57:11;;;;;;;12.18;8.68;;;13.20;99.90;;;16.37;56.08;97363.78;4972339;28;20047;-46
2023/05/12 06:59:39;;;;;;;11.30;7.78;;;13.30;99.90;;;16.44;56.25;97364.63;4975963;28;20053;-37
2023/05/12 07:02:07;;;;;;;10.48;7.07;;;13.40;99.90;;;16.48;55.98;97365.06;4975330;28;20047;-37
2023/05/12 07:04:35;;;;;;;11.73;8.38;;;13.40;99.90;;;16.47;56.13;97366.88;4972208;28;20510;-37
2023/05/12 07:07:02;;;;;;;9.75;7.25;;;13.30;99.90;;;16.53;55.88;97374.13;4972121;28;20046;-37
2023/05/12 07:09:30;;;;;;;10.10;7.43;;;13.40;99.90;;;16.59;56.20;97369.78;4972108;28;20054;-37
2023/05/12 07:11:58;;;;;;;10.10;8.38;;;13.50;99.90;;;16.63;56.33;97370.22;4972551;28;20047;-37
2023/05/12 07:14:25;;;;;;;12.27;7.72;;;13.60;99.90;;;16.68;56.19;97367.72;4972383;28;20043;-37
2023/05/12 07:16:53;;;;;;;11.65;7.60;;;13.70;99.90;;;16.70;56.28;97369.19;4972397;28;20054;-37
2023/05/12 07:19:20;;;;;;;12.52;8.32;;;13.70;99.90;;;16.74;56.67;97375.78;4964334;28;20396;-37
2023/05/12 07:21:48;;;;;;;11.35;7.32;;;13.70;99.90;;;16.82;56.45;97371.28;4972290;28;20050;-37
2023/05/12 07:24:15;;;;;;;9.50;7.20;;;13.80;99.90;;;16.88;55.91;97368.56;4971848;28;20049;-37
2023/05/12 07:26:43;;;;;;;11.70;7.65;;;13.90;99.90;;;16.92;55.77;97367.16;4971941;28;20053;-37
2023/05/12 07:29:11;;;;;;;10.15;7.50;;;13.90;99.90;;;16.99;55.85;97367.13;4971888;28;20475;-37
2023/05/12 07:31:40;;;;;;;10.00;6.85;;;14.00;99.90;;;17.09;55.77;97366.69;4972173;28;20058;-37
2023/05/12 07:34:08;;;;;;;13.85;7.70;;;14.10;99.90;;;17.12;55.91;97369.78;4971943;28;20043;-37
2023/05/12 07:36:36;;;;;;;8.98;6.97;;;14.10;99.90;;;17.15;55.39;97362.34;4972778;28;20039;-37
2023/05/12 07:39:04;;;;;;;8.30;6.40;;;14.10;99.90;;;17.09;55.19;97359.44;4975599;28;20047;-37
2023/05/12 07:41:32;;;;;;;9.25;7.00;;;14.00;99.90;;;17.10;55.77;97360.28;4975835;28;20035;-37
2023/05/12 07:44:01;;;;;;;9.43;7.13;;;14.10;99.90;;;17.16;55.54;97363.97;4975650;28;20495;-37
2023/05/12 07:46:29;;;;;;;8.55;6.35;;;14.10;99.90;;;17.22;55.87;97363.16;4975779;28;20043;-37
2023/05/12 07:48:56;;;;;;;7.38;6.20;;;14.20;99.90;;;17.29;55.86;97369.34;4975427;28;20422;-37
2023/05/12 07:51:24;;;;;;;8.13;6.15;;;14.40;99.90;;;17.36;55.48;97366.66;4975131;28;20043;-37
2023/05/12 07:53:54;;;;;;;10.10;7.57;;;14.40;99.90;;;17.41;55.12;97356.06;4975623;28;20494;-37
2023/05/12 07:56:21;;;;;;;7.93;6.45;;;14.50;99.90;;;17.39;54.75;97363.50;4958405;28;20047;-37
2023/05/12 07:58:49;;;;;;;7.70;5.65;;;14.40;99.90;;;17.43;54.61;97359.38;4975519;28;20043;-37
2023/05/12 08:01:16;;;;;;;10.05;5.85;;;14.40;99.90;;;17.48;54.72;97360.38;4975808;28;20054;-37
2023/05/12 08:03:44;;;;;;;8.27;6.75;;;14.50;99.90;;;17.47;54.17;97364.13;4975082;28;20058;-37
2023/05/12 08:06:12;;;;;;;6.97;5.47;;;14.30;99.90;;;17.49;54.45;97362.03;4975268;28;20050;-37
2023/05/12 08:08:39;;;;;;;7.00;5.22;;;14.40;99.90;;;17.57;54.76;97362.84;4975298;28;20073;-37
2023/05/12 08:11:07;;;;;;;8.38;6.07;;;14.50;99.90;;;17.62;54.41;97358.50;4975413;28;20054;-37
2023/05/12 08:13:38;;;;;;;6.15;5.32;;;14.70;99.90;;;17.68;54.34;97365.72;4975336;28;20042;-37
2023/05/12 08:16:05;;;;;;;5.95;4.93;;;14.70;99.90;;;17.70;53.85;97360.13;4974900;28;20057;-37
2023/05/12 08:18:33;;;;;;;7.65;6.68;;;14.60;99.90;;;17.72;53.99;97360.72;4974780;28;20058;-37
2023/05/12 08:21:01;;;;;;;7.47;5.60;;;14.70;99.90;;;17.76;53.90;97361.94;4958056;28;20127;-37
2023/05/12 08:23:28;;;;;;;6.60;5.50;;;14.70;99.90;;;17.80;53.44;97367.75;4975058;28;20049;-37
2023/05/12 08:25:56;;;;;;;6.05;4.90;;;14.80;99.90;;;17.79;53.62;97361.50;4975533;28;20043;-37
2023/05/12 08:28:23;;;;;;;5.80;4.63;;;14.90;99.20;;;17.81;52.92;97364.00;4975077;28;20047;-37
2023/05/12 08:30:51;;;;;;;7.60;5.20;;;14.80;96.10;;;17.85;53.01;97357.16;4975181;28;20051;-37
2023/05/12 08:33:18;;;;;;;7.32;4.78;;;14.80;96.50;;;17.89;52.97;97361.06;4975034;28;20051;-37
2023/05/12 08:35:46;;;;;;;6.60;5.03;;;14.80;96.90;;;18.00;53.07;97360.41;4975000;28;20442;-37
2023/05/12 08:38:13;;;;;;;6.57;5.05;;;14.90;98.20;;;18.12;52.65;97357.03;4974637;28;20043;-37
2023/05/12 08:41:07;;;;;;;5.78;4.22;;;15.10;96.80;;;18.24;52.79;97357.97;4974838;28;20415;-37
2023/05/12 08:43:42;;;;;;;4.32;3.53;;;15.20;95.90;;;18.38;51.82;97353.31;4968036;28;20047;-37
2023/05/12 08:46:12;;;;;;;4.78;3.78;;;15.40;93.60;;;18.41;51.59;97360.97;4969674;28;20057;-37
2023/05/12 08:48:40;;;;;;;7.57;4.70;;;15.50;92.70;;;18.50;52.24;97362.38;4973978;28;20058;-37
2023/05/12 08:51:10;;;;;;;4.80;4.18;;;15.70;93.40;;;18.63;52.33;97370.38;4974559;28;20069;-38
2023/05/12 08:53:41;;;;;;;6.45;3.83;;;15.80;93.00;;;18.72;51.76;97368.22;4974714;28;20529;-38
2023/05/12 08:56:10;;;;;;;7.60;4.00;;;15.90;91.00;;;18.84;51.25;97366.50;4965401;28;20049;-37
2023/05/12 08:58:44;;;;;;;6.22;4.38;;;16.00;89.20;;;18.94;51.30;97371.38;4974483;28;20053;-38
2023/05/12 09:01:13;;;;;;;5.43;4.03;;;16.20;88.80;;;19.02;50.87;97368.41;4973266;28;20047;-38
2023/05/12 09:03:41;;;;;;;5.05;3.45;;;16.20;88.10;;;19.10;50.43;97372.69;4974532;28;20051;-38
2023/05/12 09:06:10;;;;;;;5.85;4.35;;;16.30;86.50;;;19.10;50.23;97375.38;4974264;28;20050;-36
2023/05/12 09:08:39;;;;;;;5.32;4.00;;;16.20;85.90;;;19.05;49.94;97369.81;4973014;28;20407;-37
2023/05/12 09:11:12;;;;;;;5.90;4.05;;;16.20;85.80;;;18.99;50.31;97373.41;4973135;28;20510;-37
2023/05/12 09:14:11;;;;;;;5.03;3.67;;;16.10;85.90;;;19.00;50.43;97375.91;4972452;28;20047;-37
2023/05/12 09:16:44;;;;;;;4.43;3.78;;;16.10;84.20;;;18.98;50.10;97371.75;4968557;28;20054;-37
2023/05/12 09:19:12;;;;;;;5.70;3.78;;;16.00;85.40;;;18.98;49.91;97374.44;4964506;28;20057;-37
2023/05/12 09:21:40;;;;;;;5.57;3.65;;;16.00;85.10;;;18.95;50.02;97370.31;4974323;28;20050;-37
2023/05/12 09:24:08;;;;;;;6.38;3.80;;;16.00;85.50;;;18.95;49.83;97378.41;4972662;28;20069;-37
2023/05/12 09:26:48;;;;;;;4.18;3.78;;;16.10;85.50;;;18.95;49.98;97369.50;4973844;28;20046;-37
2023/05/12 09:29:16;;;;;;;6.00;4.50;;;16.00;84.60;;;18.93;49.73;97377.81;4973846;28;20057;-37
2023/05/12 09:32:02;;;;;;;4.85;3.90;;;16.00;84.50;;;18.86;49.74;97377.03;4973799;28;20057;-36
2023/05/12 09:34:37;;;;;;;5.28;3.60;;;15.90;83.20;;;18.75;49.88;97375.06;4974211;28;20043;-37
2023/05/12 09:37:06;;;;;;;5.32;3.92;;;15.80;84.10;;;18.66;50.17;97371.78;4973828;28;20039;-36
2023/05/12 09:39:35;;;;;;;5.78;4.32;;;15.70;85.00;;;18.60;50.21;97372.66;4973899;28;20501;-36
2023/05/12 09:42:09;;;;;;;4.38;3.97;;;15.60;85.40;;;18.63;50.24;97369.53;4973733;28;20422;-37
2023/05/12 09:44:37;;;;;;;;;;;15.70;85.80;;;18.86;50.36;97380.59;4973319;28;20047;-36
2023/05/12 09:47:06;;;;;;;4.03;3.35;;;15.80;82.40;;;18.88;49.05;97385.72;4973634;28;19922;-36
2023/05/12 09:49:33;;;;;;;4.65;3.08;;;15.80;82.20;;;18.87;49.14;97376.00;4973485;28;20055;-36
2023/05/12 09:52:03;;;;;;;3.97;2.95;;;15.90;82.40;;;18.85;49.02;97376.22;4972755;28;20050;-37
2023/05/12 09:54:33;;;;;;;3.80;3.42;;;16.00;81.40;;;18.81;48.78;97372.31;4973506;28;20038;-37
2023/05/12 09:57:03;;;;;;;4.78;3.65;;;16.00;80.70;;;18.81;48.83;97369.63;4973309;28;20499;-36
2023/05/12 09:59:34;;;;;;;4.68;4.18;;;16.00;79.80;;;18.78;49.14;97367.31;4972829;28;20054;-36
2023/05/12 10:02:07;;;;;;;4.93;4.28;;;15.90;81.00;;;18.73;49.50;97372.56;4963409;28;20074;-36
2023/05/12 10:04:51;;;;;;;5.40;4.50;;;15.80;82.30;;;18.78;49.59;97361.13;4973883;28;20521;-36
2023/05/12 10:07:26;;;;;;;5.70;3.58;;;15.80;82.80;;;18.85;49.31;97365.44;4971964;28;20069;-36
2023/05/12 10:09:58;;;;;;;6.03;5.43;;;15.90;80.30;;;18.88;49.40;97364.16;4971989;28;20043;-36
2023/05/12 10:12:25;;;;;;;5.93;4.13;;;15.90;82.50;;;19.01;49.49;97369.44;4973348;28;20069;-36
2023/05/12 10:14:54;;;;;;;6.30;4.40;;;16.10;82.90;;;19.02;49.12;97378.38;4972037;28;20053;-37
2023/05/12 10:17:24;;;;;;;4.70;4.10;;;16.00;80.40;;;19.08;48.86;97366.69;4963995;28;20497;-37
2023/05/12 10:19:52;;;;;;;4.65;4.03;;;16.10;80.00;;;19.14;48.74;97373.06;4971824;28;20310;-36
2023/05/12 10:22:20;;;;;;;5.13;3.90;;;16.10;80.10;;;19.20;48.86;97372.19;4971694;28;20038;-36